Time;durP1;ratioP1;P1;durP2;ratioP2;P2;SDS_P1;SDS_P2;PMS_P1;PMS_P2;Temp;Humidity;BMP_temperature;BMP_pressure;BME280_temperature;BME280_humidity;BME280_pressure;Samples;Min_cycle;Max_cycle;Signal;HPM_P1;HPM_P2
2022/05/14 00:00:52;;;;;;;;;;;;;;;;;;5059328;28;1517;-66
2022/05/14 00:03:17;;;;;;;;;;;;;;;;;;5061574;28;1107;-66
2022/05/14 00:05:43;;;;;;;;;;;;;;;;;;5061275;28;1521;-66
2022/05/14 00:08:08;;;;;;;;;;;;;;;;;;5061262;28;1274;-66
2022/05/14 00:13:03;;;;;;;;;;;;;;;;;;5059671;28;1762;-66
2022/05/14 00:13:19;;;;;;;;;;;;;;;;;;5056761;28;1890;-66
2022/05/14 00:15:44;;;;;;;;;;;;;;;;;;5057480;28;1794;-66
2022/05/14 00:18:10;;;;;;;;;;;;;;;;;;5058605;28;1504;-66
2022/05/14 00:20:36;;;;;;;;;;;;;;;;;;5053599;28;1604;-66
2022/05/14 00:23:01;;;;;;;;;;;;;;;;;;5058312;28;1767;-66
2022/05/14 00:25:27;;;;;;;;;;;;;;;;;;5056582;28;1504;-66
2022/05/14 00:27:52;;;;;;;;;;;;;;;;;;5060705;28;1262;-66
2022/05/14 00:30:19;;;;;;;;;;;;;;;;;;5059941;28;1576;-66
2022/05/14 00:32:44;;;;;;;;;;;;;;;;;;5060851;28;1893;-65
2022/05/14 00:35:09;;;;;;;;;;;;;;;;;;5053541;28;1576;-66
2022/05/14 00:37:35;;;;;;;;;;;;;;;;;;5059064;28;1508;-66
2022/05/14 00:40:03;;;;;;;;;;;;;;;;;;5057235;28;1824;-66
2022/05/14 00:42:28;;;;;;;;;;;;;;;;;;5061065;28;1083;-66
2022/05/14 00:44:53;;;;;;;;;;;;;;;;;;5048323;28;1786;-66
2022/05/14 00:47:18;;;;;;;;;;;;;;;;;;5059009;28;1108;-66
2022/05/14 00:49:44;;;;;;;;;;;;;;;;;;5060375;28;1247;-66
2022/05/14 00:52:14;;;;;;;;;;;;;;;;;;5052991;28;2384;-66
2022/05/14 00:54:45;;;;;;;;;;;;;;;;;;5060762;28;1096;-66
2022/05/14 00:57:12;;;;;;;;;;;;;;;;;;5060862;28;1052;-65
2022/05/14 00:59:37;;;;;;;;;;;;;;;;;;5058874;28;1619;-65
2022/05/14 01:02:04;;;;;;;;;;;;;;;;;;5060488;28;1119;-65
2022/05/14 01:04:29;;;;;;;;;;;;;;;;;;5059351;28;1412;-65
2022/05/14 01:07:06;;;;;;;;;;;;;;;;;;5054266;28;1696;-66
2022/05/14 01:09:33;;;;;;;;;;;;;;;;;;5059833;28;1263;-66
2022/05/14 01:11:59;;;;;;;;;;;;;;;;;;5060444;28;1902;-66
2022/05/14 01:14:24;;;;;;;;;;;;;;;;;;5057968;28;1805;-65
2022/05/14 01:16:51;;;;;;;;;;;;;;;;;;5049461;28;1841;-66
2022/05/14 01:19:16;;;;;;;;;;;;;;;;;;5050624;28;1461;-66
2022/05/14 01:21:48;;;;;;;;;;;;;;;;;;5052716;28;1472;-66
2022/05/14 01:27:06;;;;;;;;;;;;;;;;;;5060443;28;680;-66
2022/05/14 01:29:31;;;;;;;;;;;;;;;;;;5059800;28;1533;-66
2022/05/14 01:31:57;;;;;;;;;;;;;;;;;;5053398;28;1882;-65
2022/05/14 01:34:28;;;;;;;;;;;;;;;;;;5053817;28;1489;-66
2022/05/14 01:36:53;;;;;;;;;;;;;;;;;;5056172;28;1515;-66
2022/05/14 01:39:19;;;;;;;;;;;;;;;;;;5063196;28;1216;-66
2022/05/14 01:41:44;;;;;;;;;;;;;;;;;;5064030;28;810;-66
2022/05/14 01:44:09;;;;;;;;;;;;;;;;;;5057193;28;1651;-65
2022/05/14 01:46:35;;;;;;;;;;;;;;;;;;5060222;28;1731;-66
2022/05/14 01:49:00;;;;;;;;;;;;;;;;;;5059525;28;1834;-66
2022/05/14 01:51:25;;;;;;;;;;;;;;;;;;5061972;28;1041;-65
2022/05/14 01:53:51;;;;;;;;;;;;;;;;;;5062422;28;1897;-65
2022/05/14 01:56:16;;;;;;;;;;;;;;;;;;5058387;28;1905;-65
2022/05/14 01:58:42;;;;;;;;;;;;;;;;;;5060759;28;1441;-65
2022/05/14 02:01:08;;;;;;;;;;;;;;;;;;5072376;28;1596;-66
2022/05/14 02:03:34;;;;;;;;;;;;;;;;;;5056424;28;1682;-66
2022/05/14 02:05:59;;;;;;;;;;;;;;;;;;5061046;28;1821;-65
2022/05/14 02:08:24;;;;;;;;;;;;;;;;;;5062920;28;1259;-65
2022/05/14 02:10:50;;;;;;;;;;;;;;;;;;5061995;28;1715;-65
2022/05/14 02:13:16;;;;;;;;;;;;;;;;;;5059335;28;1936;-66
2022/05/14 02:15:41;;;;;;;;;;;;;;;;;;5063080;28;1521;-66
2022/05/14 02:18:06;;;;;;;;;;;;;;;;;;5059069;28;1707;-66
2022/05/14 02:20:31;;;;;;;;;;;;;;;;;;5062248;28;1176;-66
2022/05/14 02:22:56;;;;;;;;;;;;;;;;;;5059873;28;1690;-66
2022/05/14 02:25:22;;;;;;;;;;;;;;;;;;5062820;28;1239;-66
2022/05/14 02:27:47;;;;;;;;;;;;;;;;;;5062821;28;1263;-66
2022/05/14 02:30:12;;;;;;;;;;;;;;;;;;5063290;28;790;-66
2022/05/14 02:32:38;;;;;;;;;;;;;;;;;;5054945;28;1894;-66
2022/05/14 02:35:03;;;;;;;;;;;;;;;;;;5063116;28;1032;-65
2022/05/14 02:37:28;;;;;;;;;;;;;;;;;;5062655;28;1193;-66
2022/05/14 02:39:54;;;;;;;;;;;;;;;;;;5062606;28;1033;-65
2022/05/14 02:42:19;;;;;;;;;;;;;;;;;;5062828;28;1707;-65
2022/05/14 02:44:44;;;;;;;;;;;;;;;;;;5058471;28;1750;-65
2022/05/14 02:47:10;;;;;;;;;;;;;;;;;;5059454;28;1152;-66
2022/05/14 02:49:35;;;;;;;;;;;;;;;;;;5062583;28;1184;-65
2022/05/14 02:52:00;;;;;;;;;;;;;;;;;;5062343;28;1874;-66
2022/05/14 02:54:26;;;;;;;;;;;;;;;;;;5055304;28;1730;-65
2022/05/14 02:56:51;;;;;;;;;;;;;;;;;;5062493;28;1347;-65
2022/05/14 02:59:17;;;;;;;;;;;;;;;;;;5060890;28;1841;-66
2022/05/14 03:01:48;;;;;;;;;;;;;;;;;;5061142;28;1368;-66
2022/05/14 03:04:23;;;;;;;;;;;;;;;;;;5062701;28;925;-66
2022/05/14 03:06:49;;;;;;;;;;;;;;;;;;5062558;28;783;-66
2022/05/14 03:09:14;;;;;;;;;;;;;;;;;;5062127;28;1263;-65
2022/05/14 03:11:40;;;;;;;;;;;;;;;;;;5057989;28;1955;-66
2022/05/14 03:14:05;;;;;;;;;;;;;;;;;;5055718;28;1363;-65
2022/05/14 03:16:30;;;;;;;;;;;;;;;;;;5062434;28;1156;-66
2022/05/14 03:18:55;;;;;;;;;;;;;;;;;;5061954;28;1181;-66
2022/05/14 03:21:20;;;;;;;;;;;;;;;;;;5058756;28;1718;-66
2022/05/14 03:23:46;;;;;;;;;;;;;;;;;;5052113;28;1551;-66
2022/05/14 03:26:11;;;;;;;;;;;;;;;;;;5051880;28;1790;-66
2022/05/14 03:28:36;;;;;;;;;;;;;;;;;;5061824;28;1224;-66
2022/05/14 03:31:01;;;;;;;;;;;;;;;;;;5057987;28;1790;-66
2022/05/14 03:33:26;;;;;;;;;;;;;;;;;;5061076;28;1969;-66
2022/05/14 03:35:52;;;;;;;;;;;;;;;;;;5062182;28;980;-66
2022/05/14 03:38:17;;;;;;;;;;;;;;;;;;5061571;28;1179;-66
2022/05/14 03:40:42;;;;;;;;;;;;;;;;;;5061993;28;909;-66
2022/05/14 03:43:07;;;;;;;;;;;;;;;;;;5062074;28;786;-66
2022/05/14 03:45:32;;;;;;;;;;;;;;;;;;5052833;28;1797;-66
2022/05/14 03:47:58;;;;;;;;;;;;;;;;;;5061495;28;1244;-66
2022/05/14 03:50:23;;;;;;;;;;;;;;;;;;5061625;28;1206;-66
2022/05/14 03:52:48;;;;;;;;;;;;;;;;;;5061647;28;1969;-66
2022/05/14 03:55:13;;;;;;;;;;;;;;;;;;5058599;28;1501;-66
2022/05/14 03:57:39;;;;;;;;;;;;;;;;;;5067715;28;2242;-65
2022/05/14 04:00:07;;;;;;;;;;;;;;;;;;5060385;28;1726;-65
2022/05/14 04:02:32;;;;;;;;;;;;;;;;;;5061783;28;1302;-65
2022/05/14 04:04:57;;;;;;;;;;;;;;;;;;5061537;28;889;-65
2022/05/14 04:07:22;;;;;;;;;;;;;;;;;;5055881;28;1798;-65
2022/05/14 04:09:48;;;;;;;;;;;;;;;;;;5059858;28;1492;-66
2022/05/14 04:12:13;;;;;;;;;;;;;;;;;;5061362;28;1981;-66
2022/05/14 04:14:38;;;;;;;;;;;;;;;;;;5061457;28;829;-65
2022/05/14 04:17:03;;;;;;;;;;;;;;;;;;5061510;28;1798;-66
2022/05/14 04:19:29;;;;;;;;;;;;;;;;;;5058298;28;1734;-66
2022/05/14 04:21:54;;;;;;;;;;;;;;;;;;5052146;28;1701;-65
2022/05/14 04:24:19;;;;;;;;;;;;;;;;;;5058638;28;1480;-65
2022/05/14 04:26:44;;;;;;;;;;;;;;;;;;5060872;28;1266;-65
2022/05/14 04:29:10;;;;;;;;;;;;;;;;;;5059041;28;1641;-66
2022/05/14 04:31:35;;;;;;;;;;;;;;;;;;5060605;28;1246;-64
2022/05/14 04:34:01;;;;;;;;;;;;;;;;;;5057520;28;1898;-64
2022/05/14 04:36:26;;;;;;;;;;;;;;;;;;5058062;28;1444;-66
2022/05/14 04:38:52;;;;;;;;;;;;;;;;;;5058013;28;1484;-65
2022/05/14 04:41:18;;;;;;;;;;;;;;;;;;5060601;28;1258;-65
2022/05/14 04:43:43;;;;;;;;;;;;;;;;;;5057742;28;1239;-65
2022/05/14 04:46:08;;;;;;;;;;;;;;;;;;5060639;28;1151;-65
2022/05/14 04:48:34;;;;;;;;;;;;;;;;;;5060197;28;1318;-65
2022/05/14 04:50:59;;;;;;;;;;;;;;;;;;5057033;28;1541;-65
2022/05/14 04:53:25;;;;;;;;;;;;;;;;;;5058320;28;1918;-65
2022/05/14 04:55:50;;;;;;;;;;;;;;;;;;5058710;28;1444;-65
2022/05/14 04:58:15;;;;;;;;;;;;;;;;;;5060106;28;1303;-65
2022/05/14 05:00:41;;;;;;;;;;;;;;;;;;5058896;28;1630;-65
2022/05/14 05:03:19;;;;;;;;;;;;;;;;;;5057393;28;1465;-65
2022/05/14 05:06:03;;;;;;;;;;;;;;;;;;5057706;28;1599;-65
2022/05/14 05:08:29;;;;;;;;;;;;;;;;;;5060142;28;1540;-66
2022/05/14 05:10:54;;;;;;;;;;;;;;;;;;5058969;28;1289;-65
2022/05/14 05:13:21;;;;;;;;;;;;;;;;;;5059681;28;1898;-65
2022/05/14 05:15:46;;;;;;;;;;;;;;;;;;5060275;28;1158;-66
2022/05/14 05:18:12;;;;;;;;;;;;;;;;;;5054549;28;1330;-66
2022/05/14 05:20:38;;;;;;;;;;;;;;;;;;5060030;28;1163;-66
2022/05/14 05:23:03;;;;;;;;;;;;;;;;;;5056488;28;1197;-66
2022/05/14 05:25:29;;;;;;;;;;;;;;;;;;5056970;28;1453;-65
2022/05/14 05:27:54;;;;;;;;;;;;;;;;;;5058832;28;1322;-65
2022/05/14 05:30:19;;;;;;;;;;;;;;;;;;5058636;28;1275;-65
2022/05/14 05:32:45;;;;;;;;;;;;;;;;;;5059684;28;1898;-65
2022/05/14 05:35:10;;;;;;;;;;;;;;;;;;5059982;28;1159;-66
2022/05/14 05:37:36;;;;;;;;;;;;;;;;;;5059615;28;1317;-66
2022/05/14 05:40:02;;;;;;;;;;;;;;;;;;5058615;28;1299;-65
2022/05/14 05:42:27;;;;;;;;;;;;;;;;;;5059480;28;1256;-66
2022/05/14 05:44:52;;;;;;;;;;;;;;;;;;5059798;28;1286;-65
2022/05/14 05:47:18;;;;;;;;;;;;;;;;;;5059660;28;1285;-65
2022/05/14 05:49:43;;;;;;;;;;;;;;;;;;5059757;28;1452;-72
2022/05/14 05:52:08;;;;;;;;;;;;;;;;;;5058811;28;1910;-72
2022/05/14 05:57:18;;;;;;;;;;;;;;;;;;5048664;28;2099;-70
2022/05/14 05:59:43;;;;;;;;;;;;;;;;;;5059387;28;1271;-73
2022/05/14 06:02:08;;;;;;;;;;;;;;;;;;5059712;28;850;-71
2022/05/14 06:04:34;;;;;;;;;;;;;;;;;;5060319;28;988;-73
2022/05/14 06:06:59;;;;;;;;;;;;;;;;;;5058808;28;1681;-72
2022/05/14 06:09:26;;;;;;;;;;;;;;;;;;5059668;28;1373;-73
2022/05/14 06:11:51;;;;;;;;;;;;;;;;;;5056490;28;1965;-72
2022/05/14 06:14:17;;;;;;;;;;;;;;;;;;5059813;28;1675;-73
2022/05/14 06:16:42;;;;;;;;;;;;;;;;;;5060126;28;905;-71
2022/05/14 06:19:08;;;;;;;;;;;;;;;;;;5059044;28;1587;-71
2022/05/14 06:21:33;;;;;;;;;;;;;;;;;;5061838;28;1541;-71
2022/05/14 06:23:59;;;;;;;;;;;;;;;;;;5062831;28;1199;-71
2022/05/14 06:26:24;;;;;;;;;;;;;;;;;;5063143;28;1131;-71
2022/05/14 06:28:49;;;;;;;;;;;;;;;;;;5062892;28;1196;-72
2022/05/14 06:31:16;;;;;;;;;;;;;;;;;;5063055;28;787;-73
2022/05/14 06:33:43;;;;;;;;;;;;;;;;;;5063043;28;1956;-71
2022/05/14 06:36:08;;;;;;;;;;;;;;;;;;5061734;28;1561;-71
2022/05/14 06:38:33;;;;;;;;;;;;;;;;;;5062671;28;1269;-71
2022/05/14 06:41:03;;;;;;;;;;;;;;;;;;5063462;28;842;-70
2022/05/14 06:43:28;;;;;;;;;;;;;;;;;;5058645;28;1576;-71
2022/05/14 06:45:54;;;;;;;;;;;;;;;;;;5062993;28;1139;-71
2022/05/14 06:48:19;;;;;;;;;;;;;;;;;;5060779;28;1486;-71
2022/05/14 06:50:45;;;;;;;;;;;;;;;;;;5062942;28;1120;-70
2022/05/14 06:53:12;;;;;;;;;;;;;;;;;;5062416;28;1955;-71
2022/05/14 06:55:38;;;;;;;;;;;;;;;;;;5058076;28;2334;-71
2022/05/14 06:58:05;;;;;;;;;;;;;;;;;;5066934;28;1874;-71
2022/05/14 07:00:30;;;;;;;;;;;;;;;;;;5070240;28;1177;-72
2022/05/14 07:06:37;;;;;;;;;;;;;;;;;;5067568;28;1632;-70
2022/05/14 07:08:25;;;;;;;;;;;;;;;;;;5065622;28;1323;-72
2022/05/14 07:10:50;;;;;;;;;;;;;;;;;;5070738;28;1588;-72
2022/05/14 07:13:15;;;;;;;;;;;;;;;;;;5069518;28;1959;-71
2022/05/14 07:15:40;;;;;;;;;;;;;;;;;;5068184;28;1466;-70
2022/05/14 07:18:06;;;;;;;;;;;;;;;;;;5072361;28;1416;-71
2022/05/14 07:20:31;;;;;;;;;;;;;;;;;;5067200;28;1270;-72
2022/05/14 07:22:56;;;;;;;;;;;;;;;;;;5063088;28;1807;-72
2022/05/14 07:25:21;;;;;;;;;;;;;;;;;;5070575;28;1111;-71
2022/05/14 07:27:46;;;;;;;;;;;;;;;;;;5066352;28;1350;-70
2022/05/14 07:30:12;;;;;;;;;;;;;;;;;;5070224;28;1231;-72
2022/05/14 07:32:37;;;;;;;;;;;;;;;;;;5066512;28;1973;-71
2022/05/14 07:35:02;;;;;;;;;;;;;;;;;;5069663;28;1241;-71
2022/05/14 07:37:33;;;;;;;;;;;;;;;;;;5069644;28;1327;-72
2022/05/14 07:40:01;;;;;;;;;;;;;;;;;;5063833;28;1193;-70
2022/05/14 07:42:32;;;;;;;;;;;;;;;;;;5064828;28;1772;-71
2022/05/14 07:44:59;;;;;;;;;;;;;;;;;;5061290;28;1247;-70
2022/05/14 07:47:25;;;;;;;;;;;;;;;;;;5057703;28;1322;-71
2022/05/14 07:49:51;;;;;;;;;;;;;;;;;;5061302;28;1238;-71
2022/05/14 07:52:17;;;;;;;;;;;;;;;;;;5061151;28;1902;-70
2022/05/14 07:54:42;;;;;;;;;;;;;;;;;;5061477;28;1230;-71
2022/05/14 07:57:08;;;;;;;;;;;;;;;;;;5058695;28;1306;-71
2022/05/14 07:59:35;;;;;;;;;;;;;;;;;;5059242;28;1365;-72
2022/05/14 08:02:00;;;;;;;;;;;;;;;;;;5056306;28;1501;-71
2022/05/14 08:04:25;;;;;;;;;;;;;;;;;;5060313;28;1155;-71
2022/05/14 08:06:51;;;;;;;;;;;;;;;;;;5059943;28;1187;-71
2022/05/14 08:09:16;;;;;;;;;;;;;;;;;;5060721;28;1331;-71
2022/05/14 08:11:41;;;;;;;;;;;;;;;;;;5061119;28;1351;-72
2022/05/14 08:14:06;;;;;;;;;;;;;;;;;;5060003;28;1957;-71
2022/05/14 08:16:38;;;;;;;;;;;;;;;;;;5062756;28;1210;-72
2022/05/14 08:19:03;;;;;;;;;;;;;;;;;;5061542;28;1277;-70
2022/05/14 08:24:30;;;;;;;;;;;;;;;;;;5056351;28;1346;-70
2022/05/14 08:26:59;;;;;;;;;;;;;;;;;;5061414;28;1096;-70
2022/05/14 08:29:24;;;;;;;;;;;;;;;;;;5057162;28;1557;-71
2022/05/14 08:31:50;;;;;;;;;;;;;;;;;;5058655;28;1910;-70
2022/05/14 08:34:15;;;;;;;;;;;;;;;;;;5054172;28;1291;-71
2022/05/14 08:36:41;;;;;;;;;;;;;;;;;;5058820;28;1489;-72
2022/05/14 08:39:06;;;;;;;;;;;;;;;;;;5060266;28;1283;-71
2022/05/14 08:41:36;;;;;;;;;;;;;;;;;;5060619;28;1171;-70
2022/05/14 08:44:04;;;;;;;;;;;;;;;;;;5055648;28;1297;-71
2022/05/14 08:46:30;;;;;;;;;;;;;;;;;;5060197;28;1394;-71
2022/05/14 08:49:00;;;;;;;;;;;;;;;;;;5056755;28;1465;-71
2022/05/14 08:51:36;;;;;;;;;;;;;;;;;;5060216;28;1103;-70
2022/05/14 08:54:03;;;;;;;;;;;;;;;;;;5058452;28;1948;-70
2022/05/14 08:56:46;;;;;;;;;;;;;;;;;;5059797;28;1545;-70
2022/05/14 08:59:30;;;;;;;;;;;;;;;;;;5054446;28;1410;-70
2022/05/14 09:01:58;;;;;;;;;;;;;;;;;;5059117;28;1307;-71
2022/05/14 09:04:24;;;;;;;;;;;;;;;;;;5059276;28;937;-71
2022/05/14 09:06:50;;;;;;;;;;;;;;;;;;5060601;28;1572;-71
2022/05/14 09:09:16;;;;;;;;;;;;;;;;;;5060452;28;1121;-70
2022/05/14 09:11:44;;;;;;;;;;;;;;;;;;5057539;28;1750;-71
2022/05/14 09:14:26;;;;;;;;;;;;;;;;;;5061452;28;1891;-70
2022/05/14 09:17:03;;;;;;;;;;;;;;;;;;5053234;28;1580;-72
2022/05/14 09:19:33;;;;;;;;;;;;;;;;;;5051331;28;1503;-71
2022/05/14 09:21:58;;;;;;;;;;;;;;;;;;5059007;28;1522;-71
2022/05/14 09:24:26;;;;;;;;;;;;;;;;;;5059158;28;1628;-71
2022/05/14 09:26:52;;;;;;;;;;;;;;;;;;5060427;28;877;-72
2022/05/14 09:29:20;;;;;;;;;;;;;;;;;;5060142;28;1277;-69
2022/05/14 09:32:00;;;;;;;;;;;;;;;;;;5058450;28;1521;-71
2022/05/14 09:34:26;;;;;;;;;;;;;;;;;;5057857;28;1475;-70
2022/05/14 09:36:51;;;;;;;;;;;;;;;;;;5058042;28;1561;-69
2022/05/14 09:39:18;;;;;;;;;;;;;;;;;;5060400;28;1349;-70
2022/05/14 09:41:45;;;;;;;;;;;;;;;;;;5059327;28;1347;-70
2022/05/14 09:44:21;;;;;;;;;;;;;;;;;;5055612;28;1947;-70
2022/05/14 09:46:47;;;;;;;;;;;;;;;;;;5063259;28;1655;-70
2022/05/14 09:49:18;;;;;;;;;;;;;;;;;;5066462;28;1696;-70
2022/05/14 09:51:49;;;;;;;;;;;;;;;;;;5057138;28;1243;-69
2022/05/14 09:54:22;;;;;;;;;;;;;;;;;;5066627;28;1894;-69
2022/05/14 09:56:50;;;;;;;;;;;;;;;;;;5065550;28;1230;-70
2022/05/14 09:59:16;;;;;;;;;;;;;;;;;;5060429;28;1247;-71
2022/05/14 10:01:45;;;;;;;;;;;;;;;;;;5063296;28;1226;-71
2022/05/14 10:04:29;;;;;;;;;;;;;;;;;;5063036;28;1313;-70
2022/05/14 10:06:57;;;;;;;;;;;;;;;;;;5056598;28;1330;-70
2022/05/14 10:09:31;;;;;;;;;;;;;;;;;;5060276;28;1680;-69
2022/05/14 10:12:01;;;;;;;;;;;;;;;;;;5058284;28;1967;-69
2022/05/14 10:14:26;;;;;;;;;;;;;;;;;;5062119;28;1057;-70
2022/05/14 10:17:13;;;;;;;;;;;;;;;;;;5062313;28;1303;-69
2022/05/14 10:19:57;;;;;;;;;;;;;;;;;;5059856;28;1294;-70
2022/05/14 10:22:22;;;;;;;;;;;;;;;;;;5060845;28;1371;-70
2022/05/14 10:27:55;;;;;;;;;;;;;;;;;;5058914;28;1336;-70
2022/05/14 10:30:32;;;;;;;;;;;;;;;;;;5060113;28;1352;-71
2022/05/14 10:33:01;;;;;;;;;;;;;;;;;;5058460;28;1969;-70
2022/05/14 10:35:29;;;;;;;;;;;;;;;;;;5061095;28;1650;-70
2022/05/14 10:38:01;;;;;;;;;;;;;;;;;;5052136;28;1444;-71
2022/05/14 10:40:36;;;;;;;;;;;;;;;;;;5050739;28;1580;-70
2022/05/14 10:43:13;;;;;;;;;;;;;;;;;;5062237;28;1486;-70
2022/05/14 10:45:45;;;;;;;;;;;;;;;;;;5061260;28;1548;-70
2022/05/14 10:48:16;;;;;;;;;;;;;;;;;;5058756;28;1642;-71
2022/05/14 10:50:43;;;;;;;;;;;;;;;;;;5056574;28;1534;-70
2022/05/14 10:53:09;;;;;;;;;;;;;;;;;;5052143;28;1897;-70
2022/05/14 10:55:49;;;;;;;;;;;;;;;;;;5050536;28;1410;-70
2022/05/14 10:58:46;;;;;;;;;;;;;;;;;;5057256;28;1576;-70
2022/05/14 11:01:30;;;;;;;;;;;;;;;;;;5041455;28;1703;-70
2022/05/14 11:04:16;;;;;;;;;;;;;;;;;;5043744;28;1497;-70
2022/05/14 11:06:54;;;;;;;;;;;;;;;;;;5051841;28;1678;-70
2022/05/14 11:09:34;;;;;;;;;;;;;;;;;;5059072;28;1451;-70
2022/05/14 11:12:10;;;;;;;;;;;;;;;;;;5057442;28;1910;-70
2022/05/14 11:14:40;;;;;;;;;;;;;;;;;;5053754;28;1505;-70
2022/05/14 11:17:23;;;;;;;;;;;;;;;;;;5062226;28;1529;-70
2022/05/14 11:19:49;;;;;;;;;;;;;;;;;;5060946;28;1490;-70
2022/05/14 11:22:22;;;;;;;;;;;;;;;;;;5057318;28;1513;-70
2022/05/14 11:24:47;;;;;;;;;;;;;;;;;;5061597;28;1569;-70
2022/05/14 11:27:23;;;;;;;;;;;;;;;;;;5061122;28;1442;-70
2022/05/14 11:29:50;;;;;;;;;;;;;;;;;;5053497;28;1521;-70
2022/05/14 11:32:18;;;;;;;;;;;;;;;;;;5056146;28;1902;-70
2022/05/14 11:35:09;;;;;;;;;;;;;;;;;;5061432;28;1481;-70
2022/05/14 11:37:36;;;;;;;;;;;;;;;;;;5058927;28;1576;-70
2022/05/14 11:40:10;;;;;;;;;;;;;;;;;;5060326;28;1560;-70
2022/05/14 11:42:36;;;;;;;;;;;;;;;;;;5057006;28;1545;-69
2022/05/14 11:45:11;;;;;;;;;;;;;;;;;;5059074;28;1359;-71
2022/05/14 11:47:56;;;;;;;;;;;;;;;;;;5056367;28;1628;-71
2022/05/14 11:50:25;;;;;;;;;;;;;;;;;;5045882;28;1569;-72
2022/05/14 11:53:02;;;;;;;;;;;;;;;;;;5050961;28;1963;-70
2022/05/14 11:55:50;;;;;;;;;;;;;;;;;;5058101;28;2054;-71
2022/05/14 11:58:19;;;;;;;;;;;;;;;;;;5054754;28;2433;-67
2022/05/14 12:00:46;;;;;;;;;;;;;;;;;;5056757;28;1772;-71
2022/05/14 12:03:17;;;;;;;;;;;;;;;;;;5060481;28;1561;-71
2022/05/14 12:05:48;;;;;;;;;;;;;;;;;;5053652;28;1525;-71
2022/05/14 12:08:13;;;;;;;;;;;;;;;;;;5061092;28;1298;-71
2022/05/14 12:10:57;;;;;;;;;;;;;;;;;;5047958;28;1482;-71
2022/05/14 12:13:40;;;;;;;;;;;;;;;;;;5059410;28;1902;-72
2022/05/14 12:16:05;;;;;;;;;;;;;;;;;;5060961;28;1585;-71
2022/05/14 12:18:31;;;;;;;;;;;;;;;;;;5060399;28;1255;-72
2022/05/14 12:20:58;;;;;;;;;;;;;;;;;;5060004;28;1505;-71
2022/05/14 12:23:37;;;;;;;;;;;;;;;;;;5060867;28;1544;-72
2022/05/14 12:26:07;;;;;;;;;;;;;;;;;;5057724;28;1565;-69
2022/05/14 12:28:33;;;;;;;;;;;;;;;;;;5059253;28;1374;-69
2022/05/14 12:33:58;;;;;;;;;;;;;;;;;;5060293;28;1955;-70
2022/05/14 12:36:27;;;;;;;;;;;;;;;;;;5056964;28;1275;-70
2022/05/14 12:38:52;;;;;;;;;;;;;;;;;;5055456;28;1388;-70
2022/05/14 12:41:25;;;;;;;;;;;;;;;;;;5060608;28;1155;-70
2022/05/14 12:43:51;;;;;;;;;;;;;;;;;;5060429;28;1278;-70
2022/05/14 12:46:16;;;;;;;;;;;;;;;;;;5060625;28;1258;-69
2022/05/14 12:48:49;;;;;;;;;;;;;;;;;;5060296;28;1366;-70
2022/05/14 12:51:18;;;;;;;;;;;;;;;;;;5058132;28;1163;-69
2022/05/14 12:53:43;;;;;;;;;;;;;;;;;;5057070;28;1967;-69
2022/05/14 12:56:09;;;;;;;;;;;;;;;;;;5059641;28;1219;-70
2022/05/14 12:58:35;;;;;;;;;;;;;;;;;;5059909;28;1267;-69
2022/05/14 13:01:03;;;;;;;;;;;;;;;;;;5060447;28;1186;-71
2022/05/14 13:03:41;;;;;;;;;;;;;;;;;;5060517;28;1222;-70
2022/05/14 13:06:09;;;;;;;;;;;;;;;;;;5055712;28;1368;-69
2022/05/14 13:08:40;;;;;;;;;;;;;;;;;;5057263;28;1322;-69
2022/05/14 13:11:11;;;;;;;;;;;;;;;;;;5060275;28;1179;-70
2022/05/14 13:13:41;;;;;;;;;;;;;;;;;;5057730;28;1976;-69
2022/05/14 13:16:10;;;;;;;;;;;;;;;;;;5060058;28;1226;-70
2022/05/14 13:18:39;;;;;;;;;;;;;;;;;;5057737;28;1318;-71
2022/05/14 13:21:05;;;;;;;;;;;;;;;;;;5055829;28;1301;-72
2022/05/14 13:23:31;;;;;;;;;;;;;;;;;;5060105;28;1084;-70
2022/05/14 13:25:56;;;;;;;;;;;;;;;;;;5060367;28;1084;-71
2022/05/14 13:28:26;;;;;;;;;;;;;;;;;;5059752;28;1560;-69
2022/05/14 13:30:51;;;;;;;;;;;;;;;;;;5061439;28;1156;-69
2022/05/14 13:33:24;;;;;;;;;;;;;;;;;;5063453;28;1907;-69
2022/05/14 13:38:38;;;;;;;;;;;;;;;;;;5063482;28;1307;-69
2022/05/14 13:41:04;;;;;;;;;;;;;;;;;;5063152;28;1403;-69
2022/05/14 13:43:29;;;;;;;;;;;;;;;;;;5061166;28;1639;-68
2022/05/14 13:45:59;;;;;;;;;;;;;;;;;;5061738;28;1464;-69
2022/05/14 13:48:25;;;;;;;;;;;;;;;;;;5062987;28;1270;-69
2022/05/14 13:51:02;;;;;;;;;;;;;;;;;;5061387;28;2098;-69
2022/05/14 13:53:32;;;;;;;;;;;;;;;;;;5063081;28;1898;-69
2022/05/14 13:55:59;;;;;;;;;;;;;;;;;;5061987;28;1285;-69
2022/05/14 13:58:24;;;;;;;;;;;;;;;;;;5062674;28;1307;-69
2022/05/14 14:00:50;;;;;;;;;;;;;;;;;;5062036;28;1512;-69
2022/05/14 14:03:17;;;;;;;;;;;;;;;;;;5063097;28;1218;-69
2022/05/14 14:05:45;;;;;;;;;;;;;;;;;;5063168;28;1226;-69
2022/05/14 14:08:10;;;;;;;;;;;;;;;;;;5060044;28;1271;-69
2022/05/14 14:10:35;;;;;;;;;;;;;;;;;;5060380;28;1526;-69
2022/05/14 14:13:01;;;;;;;;;;;;;;;;;;5062727;28;1906;-69
2022/05/14 14:15:30;;;;;;;;;;;;;;;;;;5063059;28;1258;-69
2022/05/14 14:17:56;;;;;;;;;;;;;;;;;;5062358;28;1263;-69
2022/05/14 14:20:22;;;;;;;;;;;;;;;;;;5060928;28;1256;-69
2022/05/14 14:22:47;;;;;;;;;;;;;;;;;;5062532;28;1305;-70
2022/05/14 14:25:13;;;;;;;;;;;;;;;;;;5062415;28;1298;-69
2022/05/14 14:27:38;;;;;;;;;;;;;;;;;;5062399;28;1357;-69
2022/05/14 14:30:05;;;;;;;;;;;;;;;;;;5062622;28;1266;-69
2022/05/14 14:32:32;;;;;;;;;;;;;;;;;;5055935;28;1973;-69
2022/05/14 14:34:57;;;;;;;;;;;;;;;;;;5061843;28;1323;-67
2022/05/14 14:37:22;;;;;;;;;;;;;;;;;;5062866;28;1210;-68
2022/05/14 14:39:50;;;;;;;;;;;;;;;;;;5062790;28;1298;-70
2022/05/14 14:42:15;;;;;;;;;;;;;;;;;;5060501;28;1572;-70
2022/05/14 14:44:40;;;;;;;;;;;;;;;;;;5062729;28;1439;-70
2022/05/14 14:47:07;;;;;;;;;;;;;;;;;;5059878;28;1649;-69
2022/05/14 14:49:32;;;;;;;;;;;;;;;;;;5060830;28;1462;-69
2022/05/14 14:51:58;;;;;;;;;;;;;;;;;;5060831;28;870;-70
2022/05/14 14:54:23;;;;;;;;;;;;;;;;;;5061107;28;1890;-70
2022/05/14 14:56:48;;;;;;;;;;;;;;;;;;5062873;28;1513;-70
2022/05/14 14:59:14;;;;;;;;;;;;;;;;;;5062526;28;1283;-69
2022/05/14 15:01:42;;;;;;;;;;;;;;;;;;5051325;28;1571;-70
2022/05/14 15:04:07;;;;;;;;;;;;;;;;;;5050372;28;1502;-71
2022/05/14 15:06:33;;;;;;;;;;;;;;;;;;5051350;28;1568;-71
2022/05/14 15:09:00;;;;;;;;;;;;;;;;;;5055181;28;1373;-70
2022/05/14 15:11:25;;;;;;;;;;;;;;;;;;5061384;28;1148;-69
2022/05/14 15:13:54;;;;;;;;;;;;;;;;;;5058162;28;1902;-69
2022/05/14 15:16:19;;;;;;;;;;;;;;;;;;5051561;28;1587;-70
2022/05/14 15:18:44;;;;;;;;;;;;;;;;;;5047871;28;1524;-70
2022/05/14 15:21:10;;;;;;;;;;;;;;;;;;5082218;28;1039;-70
2022/05/14 15:23:35;;;;;;;;;;;;;;;;;;5082194;28;842;-70
2022/05/14 15:26:01;;;;;;;;;;;;;;;;;;5063773;28;867;-70
2022/05/14 15:28:26;;;;;;;;;;;;;;;;;;5062144;28;1164;-69
2022/05/14 15:30:52;;;;;;;;;;;;;;;;;;5058932;28;1530;-69
2022/05/14 15:33:17;;;;;;;;;;;;;;;;;;5058446;28;1894;-70
2022/05/14 15:35:43;;;;;;;;;;;;;;;;;;5062115;28;920;-70
2022/05/14 15:38:08;;;;;;;;;;;;;;;;;;5061819;28;1270;-70
2022/05/14 15:40:37;;;;;;;;;;;;;;;;;;5061959;28;814;-70
2022/05/14 15:43:03;;;;;;;;;;;;;;;;;;5060794;28;886;-70
2022/05/14 15:45:30;;;;;;;;;;;;;;;;;;5061692;28;1422;-70
2022/05/14 15:48:00;;;;;;;;;;;;;;;;;;5047972;28;1454;-70
2022/05/14 15:50:27;;;;;;;;;;;;;;;;;;5040694;28;2331;-70
2022/05/14 15:52:52;;;;;;;;;;;;;;;;;;5065133;28;2226;-71
2022/05/14 15:55:20;;;;;;;;;;;;;;;;;;5059389;28;1537;-70
2022/05/14 15:57:46;;;;;;;;;;;;;;;;;;5061523;28;1192;-69
2022/05/14 16:00:12;;;;;;;;;;;;;;;;;;5053465;28;1398;-70
2022/05/14 16:02:38;;;;;;;;;;;;;;;;;;5049328;28;1566;-70
2022/05/14 16:05:04;;;;;;;;;;;;;;;;;;5055740;28;1442;-70
2022/05/14 16:07:29;;;;;;;;;;;;;;;;;;5059102;28;1341;-69
2022/05/14 16:18:06;;;;;;;;;;;;;;;;;;5044278;28;1371;-71
2022/05/14 16:20:31;;;;;;;;;;;;;;;;;;5046290;28;830;-69
2022/05/14 16:22:57;;;;;;;;;;;;;;;;;;5044658;28;1040;-70
2022/05/14 16:25:22;;;;;;;;;;;;;;;;;;5041066;28;941;-70
2022/05/14 16:27:47;;;;;;;;;;;;;;;;;;5056190;28;1822;-70
2022/05/14 16:30:16;;;;;;;;;;;;;;;;;;5056572;28;929;-69
2022/05/14 16:32:41;;;;;;;;;;;;;;;;;;5054243;28;1969;-70
2022/05/14 16:35:06;;;;;;;;;;;;;;;;;;5051562;28;1359;-70
2022/05/14 16:37:32;;;;;;;;;;;;;;;;;;5040920;28;1176;-69
2022/05/14 16:39:57;;;;;;;;;;;;;;;;;;5041516;28;1589;-69
2022/05/14 16:42:23;;;;;;;;;;;;;;;;;;5058927;28;1481;-69
2022/05/14 16:44:48;;;;;;;;;;;;;;;;;;5059600;28;1454;-69
2022/05/14 16:47:14;;;;;;;;;;;;;;;;;;5050115;28;1458;-67
2022/05/14 16:49:39;;;;;;;;;;;;;;;;;;5045627;28;1305;-67
2022/05/14 16:52:04;;;;;;;;;;;;;;;;;;5060509;28;1451;-68
2022/05/14 16:54:30;;;;;;;;;;;;;;;;;;5060083;28;1881;-67
2022/05/14 16:56:55;;;;;;;;;;;;;;;;;;5060785;28;814;-67
2022/05/14 16:59:21;;;;;;;;;;;;;;;;;;5060700;28;1203;-67
2022/05/14 17:01:46;;;;;;;;;;;;;;;;;;5050551;28;1569;-67
2022/05/14 17:04:11;;;;;;;;;;;;;;;;;;5058759;28;1562;-68
2022/05/14 17:06:37;;;;;;;;;;;;;;;;;;5050411;28;1426;-67
2022/05/14 17:09:03;;;;;;;;;;;;;;;;;;5060433;28;1298;-67
2022/05/14 17:11:28;;;;;;;;;;;;;;;;;;5060383;28;1747;-67
2022/05/14 17:13:54;;;;;;;;;;;;;;;;;;5066903;28;1971;-67
2022/05/14 17:16:20;;;;;;;;;;;;;;;;;;5080656;28;795;-67
2022/05/14 17:18:46;;;;;;;;;;;;;;;;;;5078976;28;1211;-68
2022/05/14 17:21:11;;;;;;;;;;;;;;;;;;5080763;28;897;-67
2022/05/14 17:23:37;;;;;;;;;;;;;;;;;;5069005;28;956;-67
2022/05/14 17:26:02;;;;;;;;;;;;;;;;;;5055911;28;1462;-67
2022/05/14 17:28:27;;;;;;;;;;;;;;;;;;5051628;28;1376;-67
2022/05/14 17:30:52;;;;;;;;;;;;;;;;;;5060207;28;874;-67
2022/05/14 17:33:18;;;;;;;;;;;;;;;;;;5053029;28;2150;-67